createdAt,value
2018-08-12T00:00:49.891Z,17.20
2018-08-12T00:03:22.672Z,17.20
2018-08-12T00:06:03.135Z,17.20
2018-08-12T00:08:36.667Z,17.20
2018-08-12T00:11:09.689Z,17.10
2018-08-12T00:13:43.035Z,17.10
2018-08-12T00:16:15.044Z,17.10
2018-08-12T00:18:47.117Z,17.10
2018-08-12T00:21:19.765Z,17.10
2018-08-12T00:23:51.616Z,17.10
2018-08-12T00:26:23.839Z,17.10
2018-08-12T00:28:55.442Z,17.00
2018-08-12T00:38:41.587Z,17.00
2018-08-12T00:41:16.280Z,16.90
2018-08-12T00:43:48.233Z,17.00
2018-08-12T00:46:19.809Z,16.90
2018-08-12T00:48:51.195Z,16.90
2018-08-12T00:51:22.716Z,16.90
2018-08-12T00:53:54.992Z,16.90
2018-08-12T00:56:28.745Z,16.90
2018-08-12T00:59:01.602Z,16.90
2018-08-12T01:01:33.144Z,16.90
2018-08-12T01:04:06.644Z,16.90
2018-08-12T01:06:39.755Z,16.90
2018-08-12T01:09:13.772Z,16.90
2018-08-12T01:11:44.881Z,16.80
2018-08-12T01:14:16.532Z,16.80
2018-08-12T01:16:47.862Z,16.80
2018-08-12T01:19:19.377Z,16.80
2018-08-12T01:21:51.396Z,16.70
2018-08-12T01:24:25.181Z,16.70
2018-08-12T01:26:57.312Z,16.70
2018-08-12T01:29:29.614Z,16.70
2018-08-12T01:32:02.388Z,16.70
2018-08-12T01:34:35.533Z,16.70
2018-08-12T01:37:06.830Z,16.70
2018-08-12T01:39:38.395Z,16.70
2018-08-12T01:42:10.491Z,16.70
2018-08-12T01:44:42.785Z,16.70
2018-08-12T01:47:15.230Z,16.60
2018-08-12T01:49:47.425Z,16.60
2018-08-12T01:52:18.917Z,16.60
2018-08-12T01:54:50.231Z,16.60
2018-08-12T01:57:21.281Z,16.60
2018-08-12T01:59:52.686Z,16.60
2018-08-12T02:02:24.243Z,16.60
2018-08-12T02:04:55.381Z,16.60
2018-08-12T02:07:27.139Z,16.60
2018-08-12T02:09:59.008Z,16.60
2018-08-12T02:12:30.724Z,16.60
2018-08-12T02:15:02.243Z,16.50
2018-08-12T02:17:34.812Z,16.50
2018-08-12T02:20:06.752Z,16.50
2018-08-12T02:22:39.324Z,16.50
2018-08-12T02:25:12.320Z,16.50
2018-08-12T02:27:43.722Z,16.50
2018-08-12T02:30:15.482Z,16.50
2018-08-12T02:32:47.206Z,16.50
2018-08-12T02:35:18.663Z,16.50
2018-08-12T02:37:51.033Z,16.50
2018-08-12T02:40:22.076Z,16.50
2018-08-12T02:42:53.200Z,16.50
2018-08-12T02:45:25.337Z,16.40
2018-08-12T02:47:57.069Z,16.40
2018-08-12T02:50:28.846Z,16.50
2018-08-12T02:53:00.153Z,16.50
2018-08-12T02:55:32.351Z,16.50
2018-08-12T02:58:03.332Z,16.40
2018-08-12T03:00:35.029Z,16.40
2018-08-12T03:03:07.044Z,16.40
2018-08-12T03:05:39.065Z,16.40
2018-08-12T03:08:10.283Z,16.40
2018-08-12T03:10:41.706Z,16.40
2018-08-12T03:13:13.569Z,16.40
2018-08-12T03:15:44.768Z,16.40
2018-08-12T03:18:17.004Z,16.40
2018-08-12T03:20:48.576Z,16.40
2018-08-12T03:23:20.609Z,16.40
2018-08-12T03:25:52.330Z,16.40
2018-08-12T03:28:23.967Z,16.40
2018-08-12T03:30:56.903Z,16.40
2018-08-12T03:33:28.030Z,16.40
2018-08-12T03:36:00.839Z,16.30
2018-08-12T03:38:33.108Z,16.40
2018-08-12T03:41:05.082Z,16.40
2018-08-12T03:43:36.680Z,16.30
2018-08-12T03:46:08.397Z,16.30
2018-08-12T03:48:40.131Z,16.30
2018-08-12T03:51:12.834Z,16.30
2018-08-12T03:53:44.173Z,16.30
2018-08-12T03:56:16.159Z,16.30
2018-08-12T03:58:48.741Z,16.30
2018-08-12T04:01:20.311Z,16.30
2018-08-12T04:03:51.629Z,16.30
2018-08-12T04:06:23.489Z,16.20
2018-08-12T04:08:55.013Z,16.20
2018-08-12T04:11:27.471Z,16.20
2018-08-12T04:13:58.969Z,16.20
2018-08-12T04:16:32.193Z,16.20
2018-08-12T04:19:03.522Z,16.20
2018-08-12T04:21:35.410Z,16.20
2018-08-12T04:24:07.331Z,16.20
2018-08-12T04:26:39.517Z,16.20
2018-08-12T04:29:11.636Z,16.20
2018-08-12T04:31:43.312Z,16.20
2018-08-12T04:34:14.663Z,16.10
2018-08-12T04:36:46.822Z,16.20
2018-08-12T04:39:18.199Z,16.20
2018-08-12T04:41:49.817Z,16.20
2018-08-12T04:44:21.577Z,16.10
2018-08-12T04:46:53.892Z,16.20
2018-08-12T04:49:25.421Z,16.10
2018-08-12T04:51:57.161Z,16.10
2018-08-12T04:54:28.544Z,16.10
2018-08-12T04:56:59.721Z,16.10
2018-08-12T04:59:31.348Z,16.10
2018-08-12T05:02:03.253Z,16.10
2018-08-12T05:04:34.744Z,16.10
2018-08-12T05:07:06.665Z,16.10
2018-08-12T05:09:39.372Z,16.10
2018-08-12T05:12:10.948Z,16.10
2018-08-12T05:14:43.013Z,16.10
2018-08-12T05:17:14.552Z,16.10
2018-08-12T05:19:45.861Z,16.10
2018-08-12T05:22:17.554Z,16.10
2018-08-12T05:24:49.424Z,16.10
2018-08-12T05:27:21.571Z,16.10
2018-08-12T05:29:52.833Z,16.10
2018-08-12T05:32:25.480Z,16.10
2018-08-12T05:34:57.035Z,16.10
2018-08-12T05:37:28.702Z,16.10
2018-08-12T05:39:59.904Z,16.20
2018-08-12T05:42:31.507Z,16.10
2018-08-12T05:45:03.662Z,16.10
2018-08-12T05:47:34.916Z,16.10
2018-08-12T05:50:08.594Z,16.10
2018-08-12T05:52:40.551Z,16.10
2018-08-12T05:55:14.009Z,16.10
2018-08-12T05:57:45.648Z,16.20
2018-08-12T06:00:17.497Z,16.10
2018-08-12T06:02:49.711Z,16.10
2018-08-12T06:05:22.340Z,16.20
2018-08-12T06:07:53.668Z,16.10
2018-08-12T06:10:24.916Z,16.20
2018-08-12T06:12:58.720Z,16.20
2018-08-12T06:15:31.228Z,16.20
2018-08-12T06:18:03.577Z,16.20
2018-08-12T06:20:35.771Z,16.20
2018-08-12T06:23:09.388Z,16.20
2018-08-12T06:25:45.725Z,16.20
2018-08-12T06:28:18.360Z,16.20
2018-08-12T06:30:51.220Z,16.20
2018-08-12T06:33:23.286Z,16.20
2018-08-12T06:36:01.741Z,16.20
2018-08-12T06:38:37.177Z,16.20
2018-08-12T06:41:08.603Z,16.20
2018-08-12T06:43:40.093Z,16.20
2018-08-12T06:46:13.006Z,16.20
2018-08-12T06:48:45.972Z,16.30
2018-08-12T06:51:17.723Z,16.30
2018-08-12T06:53:51.527Z,16.30
2018-08-12T06:56:25.119Z,16.30
2018-08-12T06:59:01.096Z,16.30
2018-08-12T07:01:35.823Z,16.30
2018-08-12T07:04:09.344Z,16.30
2018-08-12T07:06:41.532Z,16.30
2018-08-12T07:09:14.637Z,16.30
2018-08-12T07:11:47.881Z,16.30
2018-08-12T07:14:19.813Z,16.40
2018-08-12T07:16:51.275Z,16.40
2018-08-12T07:19:23.261Z,16.40
2018-08-12T07:21:54.775Z,16.40
2018-08-12T07:24:27.045Z,16.40
2018-08-12T07:26:58.639Z,16.50
2018-08-12T07:29:30.464Z,16.50
2018-08-12T07:32:01.677Z,16.50
2018-08-12T07:34:33.943Z,16.60
2018-08-12T07:37:05.931Z,16.60
2018-08-12T07:39:38.282Z,16.60
2018-08-12T07:42:10.033Z,16.60
2018-08-12T07:44:41.537Z,16.70
2018-08-12T07:47:13.726Z,16.60
2018-08-12T07:49:45.565Z,16.60
2018-08-12T07:52:17.346Z,16.70
2018-08-12T07:54:49.357Z,16.70
2018-08-12T07:57:20.803Z,16.70
2018-08-12T07:59:52.787Z,16.70
2018-08-12T08:02:24.543Z,16.70
2018-08-12T08:04:56.306Z,16.70
2018-08-12T08:07:28.099Z,16.70
2018-08-12T08:10:01.118Z,16.70
2018-08-12T08:12:33.589Z,16.70
2018-08-12T08:15:06.738Z,16.80
2018-08-12T08:17:38.826Z,16.80
2018-08-12T08:20:11.805Z,16.80
2018-08-12T08:22:43.773Z,16.80
2018-08-12T08:25:15.420Z,16.80
2018-08-12T08:27:47.604Z,16.80
2018-08-12T08:30:20.209Z,16.80
2018-08-12T08:32:53.492Z,16.80
2018-08-12T08:35:25.844Z,16.80
2018-08-12T08:37:58.248Z,16.80
2018-08-12T08:40:29.807Z,16.80
2018-08-12T08:43:01.670Z,16.80
2018-08-12T08:45:34.893Z,16.90
2018-08-12T08:48:07.120Z,16.90
2018-08-12T08:50:38.860Z,16.90
2018-08-12T08:53:11.480Z,16.90
2018-08-12T08:55:43.176Z,16.90
2018-08-12T08:58:15.300Z,17.00
2018-08-12T09:00:46.975Z,17.00
2018-08-12T09:03:18.829Z,17.00
2018-08-12T09:05:51.047Z,17.00
2018-08-12T09:08:23.320Z,17.00
2018-08-12T09:11:04.475Z,16.90
2018-08-12T09:13:36.849Z,16.90
2018-08-12T09:16:09.879Z,17.00
2018-08-12T09:18:41.796Z,17.00
2018-08-12T09:21:14.817Z,17.00
2018-08-12T09:23:47.735Z,17.10
2018-08-12T09:26:19.599Z,17.10
2018-08-12T09:28:52.080Z,17.10
2018-08-12T09:31:24.290Z,17.10
2018-08-12T09:33:57.079Z,17.10
2018-08-12T09:36:29.402Z,17.10
2018-08-12T09:39:04.252Z,17.10
2018-08-12T09:41:35.986Z,17.20
2018-08-12T09:44:07.759Z,17.20
2018-08-12T09:46:39.328Z,17.20
2018-08-12T09:49:12.695Z,17.20
2018-08-12T09:51:44.427Z,17.10
2018-08-12T09:54:16.678Z,17.20
2018-08-12T09:56:48.211Z,17.20
2018-08-12T09:59:19.943Z,17.20
2018-08-12T10:01:51.848Z,17.10
2018-08-12T10:04:31.417Z,17.10
2018-08-12T10:07:03.554Z,17.20
2018-08-12T10:09:36.317Z,17.20
2018-08-12T10:12:08.706Z,17.20
2018-08-12T10:14:40.646Z,17.20
2018-08-12T10:17:12.745Z,17.20
2018-08-12T10:19:44.959Z,17.20
2018-08-12T10:22:17.264Z,17.20
2018-08-12T10:24:49.076Z,17.20
2018-08-12T10:27:21.894Z,17.20
2018-08-12T10:29:54.759Z,17.20
2018-08-12T10:32:27.112Z,17.20
2018-08-12T10:34:59.311Z,17.20
2018-08-12T10:37:36.596Z,17.20
2018-08-12T10:40:21.667Z,17.20
2018-08-12T10:42:54.268Z,17.30
2018-08-12T10:45:26.436Z,17.30
2018-08-12T10:47:58.530Z,17.30
2018-08-12T10:50:30.152Z,17.30
2018-08-12T10:53:02.143Z,17.30
2018-08-12T10:55:36.197Z,17.30
2018-08-12T10:58:08.385Z,17.30
2018-08-12T11:00:40.673Z,17.30
2018-08-12T11:03:12.463Z,17.40
2018-08-12T11:05:44.864Z,17.40
2018-08-12T11:08:18.171Z,17.40
2018-08-12T11:10:51.923Z,17.40
2018-08-12T11:13:24.169Z,17.40
2018-08-12T11:15:58.332Z,17.50
2018-08-12T11:18:30.014Z,17.40
2018-08-12T11:21:05.434Z,17.50
2018-08-12T11:23:36.966Z,17.50
2018-08-12T11:26:08.468Z,17.50
2018-08-12T11:28:45.327Z,17.50
2018-08-12T11:31:18.157Z,17.50
2018-08-12T11:33:49.790Z,17.50
2018-08-12T11:36:21.668Z,17.50
2018-08-12T11:38:54.441Z,17.60
2018-08-12T11:41:26.376Z,17.60
2018-08-12T11:43:58.090Z,17.50
2018-08-12T11:46:29.841Z,17.50
2018-08-12T11:49:01.922Z,17.50
2018-08-12T11:51:35.440Z,17.50
2018-08-12T11:54:06.979Z,17.50
2018-08-12T11:56:39.435Z,17.60
2018-08-12T11:59:12.540Z,17.60
2018-08-12T12:01:46.703Z,17.50
2018-08-12T12:04:19.278Z,17.60
2018-08-12T12:06:51.706Z,17.50
2018-08-12T12:09:23.622Z,17.50
2018-08-12T12:11:55.798Z,17.60
2018-08-12T12:14:33.327Z,17.50
2018-08-12T12:17:09.678Z,17.60
2018-08-12T12:19:42.650Z,17.50
2018-08-12T12:22:14.802Z,17.50
2018-08-12T12:24:47.924Z,17.50
2018-08-12T12:27:19.404Z,17.50
2018-08-12T12:29:51.504Z,17.50
2018-08-12T12:32:23.083Z,17.50
2018-08-12T12:34:55.558Z,17.50
2018-08-12T12:37:28.102Z,17.50
2018-08-12T12:40:16.615Z,17.50
2018-08-12T12:42:49.849Z,17.50
2018-08-12T12:45:26.089Z,17.50
2018-08-12T12:50:51.953Z,17.50
2018-08-12T12:53:23.734Z,17.60
2018-08-12T12:55:56.000Z,17.50
2018-08-12T12:58:28.082Z,17.60
2018-08-12T13:01:00.728Z,17.60
2018-08-12T13:03:32.664Z,17.60
2018-08-12T13:06:04.338Z,17.60
2018-08-12T13:08:37.063Z,17.60
2018-08-12T13:11:11.069Z,17.60
2018-08-12T13:13:43.048Z,17.60
2018-08-12T13:16:16.097Z,17.60
2018-08-12T13:18:49.423Z,17.60
2018-08-12T13:21:20.904Z,17.60
2018-08-12T13:23:53.635Z,17.60
2018-08-12T13:29:44.280Z,17.60
2018-08-12T13:32:16.653Z,17.60
2018-08-12T13:34:48.174Z,17.60
2018-08-12T13:37:20.616Z,17.60
2018-08-12T13:39:52.908Z,17.60
2018-08-12T13:42:24.628Z,17.60
2018-08-12T13:44:57.289Z,17.60
2018-08-12T13:47:28.961Z,17.60
2018-08-12T13:50:00.746Z,17.60
2018-08-12T13:52:32.418Z,17.60
2018-08-12T13:55:04.563Z,17.60
2018-08-12T13:57:39.661Z,17.70
2018-08-12T14:00:14.503Z,17.70
2018-08-12T14:02:46.724Z,17.70
2018-08-12T14:05:20.308Z,17.70
2018-08-12T14:07:53.936Z,17.60
2018-08-12T14:10:31.182Z,17.70
2018-08-12T14:16:14.197Z,17.60
2018-08-12T14:18:48.662Z,17.60
2018-08-12T14:21:19.437Z,17.60
2018-08-12T14:23:50.312Z,17.60
2018-08-12T14:26:21.159Z,17.60
2018-08-12T14:28:51.909Z,17.60
2018-08-12T14:31:34.385Z,17.60
2018-08-12T14:34:05.166Z,17.60
2018-08-12T14:36:35.866Z,17.70
2018-08-12T14:39:09.039Z,17.70
2018-08-12T14:41:39.948Z,17.70
2018-08-12T14:44:10.581Z,17.70
2018-08-12T14:46:41.186Z,17.60
2018-08-12T14:49:12.143Z,17.70
2018-08-12T14:51:43.381Z,17.70
2018-08-12T14:54:14.097Z,17.70
2018-08-12T14:56:44.801Z,17.70
2018-08-12T14:59:15.562Z,17.70
2018-08-12T15:01:46.187Z,17.70
2018-08-12T15:04:17.439Z,17.70
2018-08-12T15:06:48.559Z,17.70
2018-08-12T15:09:19.128Z,17.70
2018-08-12T15:11:49.856Z,17.70
2018-08-12T15:14:20.746Z,17.70
2018-08-12T15:16:51.531Z,17.70
2018-08-12T15:19:22.067Z,17.70
2018-08-12T15:21:52.805Z,17.70
2018-08-12T15:24:23.461Z,17.70
2018-08-12T15:26:54.271Z,17.70
2018-08-12T15:29:24.880Z,17.70
2018-08-12T15:31:55.397Z,17.70
2018-08-12T15:34:26.250Z,17.70
2018-08-12T15:37:11.151Z,17.50
2018-08-12T15:39:42.255Z,17.50
2018-08-12T15:42:12.987Z,17.60
2018-08-12T15:44:43.523Z,17.60
2018-08-12T15:47:14.100Z,17.70
2018-08-12T15:49:44.761Z,17.70
2018-08-12T15:52:15.635Z,17.70
2018-08-12T15:54:46.280Z,17.70
2018-08-12T15:57:17.131Z,17.80
2018-08-12T15:59:47.821Z,17.80
2018-08-12T16:02:18.217Z,17.80
2018-08-12T16:04:48.860Z,17.80
2018-08-12T16:07:19.551Z,17.80
2018-08-12T16:09:50.250Z,17.80
2018-08-12T16:12:20.899Z,17.80
2018-08-12T16:14:51.753Z,17.80
2018-08-12T16:17:22.846Z,17.80
2018-08-12T16:22:50.292Z,17.80
2018-08-12T16:25:22.312Z,17.80
2018-08-12T16:27:53.138Z,17.80
2018-08-12T16:30:23.909Z,17.80
2018-08-12T16:32:54.682Z,17.80
2018-08-12T16:35:25.520Z,17.80
2018-08-12T16:37:55.963Z,17.80
2018-08-12T16:40:26.817Z,17.80
2018-08-12T16:42:57.421Z,17.80
2018-08-12T16:45:28.105Z,17.80
2018-08-12T16:47:58.797Z,17.80
2018-08-12T16:50:29.740Z,17.80
2018-08-12T16:53:00.393Z,17.80
2018-08-12T16:55:31.145Z,17.80
2018-08-12T16:58:02.092Z,17.80
2018-08-12T17:00:32.583Z,17.80
2018-08-12T17:03:09.831Z,17.80
2018-08-12T17:05:40.577Z,17.80
2018-08-12T17:08:11.326Z,17.80
2018-08-12T17:10:41.859Z,17.80
2018-08-12T17:13:12.563Z,17.80
2018-08-12T17:15:43.316Z,17.80
2018-08-12T17:18:13.838Z,17.80
2018-08-12T17:20:44.340Z,17.80
2018-08-12T17:23:14.916Z,17.80
2018-08-12T17:25:45.749Z,17.80
2018-08-12T17:28:16.379Z,17.80
2018-08-12T17:30:59.578Z,17.90
2018-08-12T17:33:30.373Z,17.90
2018-08-12T17:36:00.821Z,17.90
2018-08-12T17:38:31.683Z,17.80
2018-08-12T17:41:02.657Z,17.80
2018-08-12T17:43:33.621Z,17.80
2018-08-12T17:46:04.469Z,17.80
2018-08-12T17:48:35.091Z,17.80
2018-08-12T17:51:06.031Z,17.80
2018-08-12T17:53:36.892Z,17.90
2018-08-12T17:56:07.690Z,17.90
2018-08-12T17:58:38.527Z,17.80
2018-08-12T18:01:09.279Z,17.80
2018-08-12T18:03:39.828Z,17.80
2018-08-12T18:06:10.504Z,17.80
2018-08-12T18:08:41.267Z,17.80
2018-08-12T18:11:11.866Z,17.80
2018-08-12T18:13:42.631Z,17.80
2018-08-12T18:16:13.442Z,17.80
2018-08-12T18:18:44.093Z,17.80
2018-08-12T18:21:26.020Z,17.80
2018-08-12T18:23:56.699Z,17.80
2018-08-12T18:26:27.630Z,17.80
2018-08-12T18:28:58.558Z,17.80
2018-08-12T18:31:34.697Z,17.80
2018-08-12T18:34:05.647Z,17.80
2018-08-12T18:36:36.286Z,17.80
2018-08-12T18:39:09.925Z,17.80
2018-08-12T18:41:40.895Z,17.80
2018-08-12T18:44:11.591Z,17.80
2018-08-12T18:46:42.278Z,17.80
2018-08-12T18:49:12.895Z,17.80
2018-08-12T18:51:43.665Z,17.80
2018-08-12T18:54:14.297Z,17.80
2018-08-12T18:56:44.863Z,17.90
2018-08-12T18:59:15.456Z,17.80
2018-08-12T19:01:46.360Z,17.90
2018-08-12T19:04:16.881Z,17.80
2018-08-12T19:06:47.440Z,17.80
2018-08-12T19:09:18.128Z,17.80
2018-08-12T19:11:49.101Z,17.80
2018-08-12T19:14:19.851Z,17.80
2018-08-12T19:16:50.546Z,17.80
2018-08-12T19:19:21.345Z,17.80
2018-08-12T19:21:52.502Z,17.80
2018-08-12T19:24:23.178Z,17.80
2018-08-12T19:26:54.914Z,17.80
2018-08-12T19:29:25.543Z,17.80
2018-08-12T19:31:56.112Z,17.80
2018-08-12T19:34:26.636Z,17.80
2018-08-12T19:36:57.388Z,17.80
2018-08-12T19:39:28.024Z,17.80
2018-08-12T19:42:03.952Z,17.80
2018-08-12T19:44:34.488Z,17.80
2018-08-12T19:47:05.735Z,17.80
2018-08-12T19:49:36.533Z,17.80
2018-08-12T19:52:07.277Z,17.80
2018-08-12T19:54:37.906Z,17.80
2018-08-12T19:57:08.353Z,17.80
2018-08-12T19:59:39.243Z,17.80
2018-08-12T20:02:10.497Z,17.80
2018-08-12T20:04:41.018Z,17.80
2018-08-12T20:07:11.718Z,17.80
2018-08-12T20:12:29.836Z,17.80
2018-08-12T20:15:01.014Z,17.80
2018-08-12T20:17:31.750Z,17.80
2018-08-12T20:20:02.241Z,17.80
2018-08-12T20:22:32.970Z,17.80
2018-08-12T20:25:03.926Z,17.80
2018-08-12T20:27:36.506Z,17.80
2018-08-12T20:30:11.741Z,17.80
2018-08-12T20:32:48.400Z,17.80
2018-08-12T20:35:19.471Z,17.80
2018-08-12T20:37:50.073Z,17.80
2018-08-12T20:40:20.755Z,17.80
2018-08-12T20:42:51.508Z,17.80
2018-08-12T20:45:21.924Z,17.80
2018-08-12T20:47:52.426Z,17.80
2018-08-12T20:50:23.153Z,17.80
2018-08-12T20:52:55.889Z,17.80
2018-08-12T20:55:26.690Z,17.80
2018-08-12T20:57:58.176Z,17.80
2018-08-12T21:00:28.864Z,17.80
2018-08-12T21:02:59.786Z,17.80
2018-08-12T21:05:32.437Z,17.80
2018-08-12T21:08:07.236Z,17.80
2018-08-12T21:10:38.107Z,17.80
2018-08-12T21:13:08.755Z,17.80
2018-08-12T21:15:39.584Z,17.80
2018-08-12T21:18:10.642Z,17.80
2018-08-12T21:20:41.352Z,17.80
2018-08-12T21:23:11.852Z,17.80
2018-08-12T21:25:42.464Z,17.80
2018-08-12T21:28:13.081Z,17.80
2018-08-12T21:30:43.783Z,17.80
2018-08-12T21:33:14.732Z,17.80
2018-08-12T21:35:45.134Z,17.80
2018-08-12T21:38:15.854Z,17.70
2018-08-12T21:40:47.091Z,17.80
2018-08-12T21:43:17.781Z,17.80
2018-08-12T21:45:48.407Z,17.70
2018-08-12T21:48:19.108Z,17.70
2018-08-12T21:50:49.948Z,17.80
2018-08-12T21:53:21.133Z,17.80
2018-08-12T21:55:51.812Z,17.80
2018-08-12T21:58:22.318Z,17.80
2018-08-12T22:00:54.200Z,17.70
2018-08-12T22:03:24.732Z,17.70
2018-08-12T22:05:55.398Z,17.70
2018-08-12T22:08:26.054Z,17.70
2018-08-12T22:10:56.814Z,17.70
2018-08-12T22:13:27.420Z,17.70
2018-08-12T22:15:57.896Z,17.70
2018-08-12T22:18:29.855Z,17.70
2018-08-12T22:21:00.672Z,17.70
2018-08-12T22:23:31.252Z,17.70
2018-08-12T22:26:01.767Z,17.70
2018-08-12T22:28:32.532Z,17.70
2018-08-12T22:31:03.712Z,17.70
2018-08-12T22:33:34.444Z,17.70
2018-08-12T22:36:05.044Z,17.70
2018-08-12T22:38:35.619Z,17.70
2018-08-12T22:41:06.277Z,17.70
2018-08-12T22:43:37.181Z,17.70
2018-08-12T22:46:09.307Z,17.70
2018-08-12T22:48:40.225Z,17.70
2018-08-12T22:51:10.703Z,17.70
2018-08-12T22:53:41.253Z,17.70
2018-08-12T22:56:13.644Z,17.70
2018-08-12T22:58:44.166Z,17.70
2018-08-12T23:01:15.045Z,17.70
2018-08-12T23:03:45.661Z,17.70
2018-08-12T23:06:16.140Z,17.70
2018-08-12T23:08:46.962Z,17.70
2018-08-12T23:11:17.614Z,17.70
2018-08-12T23:13:48.401Z,17.70
2018-08-12T23:16:29.556Z,17.70
2018-08-12T23:19:00.160Z,17.70
2018-08-12T23:21:30.635Z,17.70
2018-08-12T23:24:01.114Z,17.70
2018-08-12T23:26:31.706Z,17.70
2018-08-12T23:29:02.179Z,17.60
2018-08-12T23:31:32.863Z,17.70
2018-08-12T23:34:03.492Z,17.70
2018-08-12T23:36:34.320Z,17.70
2018-08-12T23:39:06.828Z,17.70
2018-08-12T23:41:37.577Z,17.60
2018-08-12T23:44:09.022Z,17.60
2018-08-12T23:46:39.860Z,17.60
2018-08-12T23:49:10.450Z,17.60
2018-08-12T23:51:41.215Z,17.60
2018-08-12T23:54:11.758Z,17.60
2018-08-12T23:56:42.273Z,17.60
2018-08-12T23:59:12.824Z,17.60
